Hermitage, Arkansas
Current Conditions -  °F | °C
As of 7:53 PM on Saturday 22 Nov 2014 (Local Time) from KLLQ Reporting Station
Overcast Overcast  
Wind Chill: 60°   Ceiling: 4400
Heat Index: 60°   Visibility: 10mi
Dew Point: 54°   Wind: 5mph
Humidity: 80%   Direction: 80°E
Pressure: 29.96"   Gusts: NA
Location:  33.45°N, 92.17°W
Report Text: KLLQ 230153Z AUTO 08004KT 10SM OVC044 16/12 A2996 RMK AO2 SLP143 T01560122
Loading
Personal Weather Stations






























Interactive Weather Map New forecast layout! Learn more

10-Day Weather Forecast

Advertisements
Track Severe Weather on mobile